CheckWX is a tool to help pilots better visualize weather data.  It is not intended as a substitute for an official pre-flight weather briefing.

00:51:19 UTC

CYFC TAF
Fredericton Airport
Fredericton, Canada
TAF CYFC 162338Z 1700/1712 30008KT P6SM SKC RMK FCST BASED ON AUTO OBS. NXT FCST BY 170600Z

Nov-17@
00:00 UTC

Nov-17 @ 00:00 UTC

Nov-17@
12:00 UTC

Nov-17 @ 12:00 UTC

TAF CYFC 162338Z 1700/1712 30008KT P6SM SKC RMK FCST BASED ON AUTO OBS. NXT FCST BY 170600Z
Wind
  • 300° at 8 KTS
Cloud Levels
  • Clear skies